Time;durP1;ratioP1;P1;durP2;ratioP2;P2;SDS_P1;SDS_P2;PMS_P1;PMS_P2;Temp;Humidity;BMP_temperature;BMP_pressure;BME280_temperature;BME280_humidity;BME280_pressure;Samples;Min_cycle;Max_cycle;Signal;HPM_P1;HPM_P2
2021/06/05 00:01:24;;;;;;;9.45;6.57;;;20.20;85.20;;;;;;5103746;28;20097;-71
2021/06/05 00:03:55;;;;;;;8.18;6.40;;;20.20;85.20;;;;;;5110191;28;20062;-71
2021/06/05 00:06:26;;;;;;;9.00;7.00;;;20.20;85.20;;;;;;5100773;28;20043;-71
2021/06/05 00:08:54;;;;;;;8.85;6.88;;;20.20;85.20;;;;;;5090532;28;20064;-72
2021/06/05 00:11:25;;;;;;;9.95;7.15;;;20.20;85.30;;;;;;5107722;28;20502;-72
2021/06/05 00:13:56;;;;;;;10.15;7.93;;;20.20;85.30;;;;;;5088248;28;20097;-71
2021/06/05 00:16:45;;;;;;;9.25;6.93;;;20.20;85.40;;;;;;5082366;28;20044;-71
2021/06/05 00:19:14;;;;;;;10.60;8.07;;;20.30;85.40;;;;;;5087273;28;20048;-72
2021/06/05 00:21:42;;;;;;;10.80;8.13;;;20.20;85.40;;;;;;5108592;28;20071;-73
2021/06/05 00:24:10;;;;;;;11.82;8.88;;;20.20;85.70;;;;;;5090694;28;20071;-73
2021/06/05 00:26:37;;;;;;;10.70;8.40;;;20.20;86.30;;;;;;5084309;28;20047;-73
2021/06/05 00:29:05;;;;;;;9.50;7.30;;;20.10;86.70;;;;;;5103013;28;20043;-73
2021/06/05 00:31:32;;;;;;;14.30;10.77;;;20.10;87.10;;;;;;5090908;28;20073;-73
2021/06/05 00:33:59;;;;;;;16.88;11.98;;;20.00;87.70;;;;;;5073701;28;20054;-75
2021/06/05 00:36:28;;;;;;;14.65;11.20;;;19.90;88.40;;;;;;5093548;28;20040;-74
2021/06/05 00:38:55;;;;;;;14.60;11.02;;;19.90;88.80;;;;;;5077068;28;20048;-74
2021/06/05 00:41:25;;;;;;;13.60;9.75;;;19.80;88.90;;;;;;5113619;28;20056;-75
2021/06/05 00:43:59;;;;;;;13.60;10.13;;;19.90;89.20;;;;;;5093365;28;20579;-74
2021/06/05 00:46:29;;;;;;;15.70;11.43;;;19.80;89.20;;;;;;5095140;28;20380;-74
2021/06/05 00:48:58;;;;;;;19.08;13.52;;;19.80;89.50;;;;;;5073238;28;20459;-75
2021/06/05 00:51:39;;;;;;;19.17;13.55;;;19.70;90.00;;;;;;5095309;28;20085;-76
2021/06/05 00:54:09;;;;;;;17.15;13.35;;;19.70;90.30;;;;;;5112042;28;20093;-76
2021/06/05 00:56:40;;;;;;;15.43;12.13;;;19.60;90.40;;;;;;5076479;28;20051;-74
2021/06/05 00:59:09;;;;;;;22.38;18.58;;;19.60;90.50;;;;;;5084390;28;20146;-75
2021/06/05 01:01:38;;;;;;;20.88;16.00;;;19.60;90.70;;;;;;5092529;28;20039;-75
2021/06/05 01:04:07;;;;;;;20.83;15.75;;;19.40;90.70;;;;;;5072187;28;20155;-74
2021/06/05 01:06:54;;;;;;;19.60;15.07;;;19.40;90.90;;;;;;5044322;28;20044;-74
2021/06/05 01:09:45;;;;;;;17.23;13.98;;;19.40;90.90;;;;;;5091826;28;20079;-73
2021/06/05 01:12:47;;;;;;;16.83;13.70;;;19.40;91.00;;;;;;5090685;28;20414;-73
2021/06/05 01:15:15;;;;;;;18.75;15.23;;;19.40;91.10;;;;;;5057327;28;20040;-73
2021/06/05 01:17:48;;;;;;;18.10;13.77;;;19.40;91.10;;;;;;5090690;28;20047;-72
2021/06/05 01:20:22;;;;;;;16.33;13.50;;;19.30;91.10;;;;;;5070968;28;20041;-73
2021/06/05 01:23:02;;;;;;;15.90;13.02;;;19.20;91.10;;;;;;5084086;28;20101;-73
2021/06/05 01:25:57;;;;;;;18.58;12.57;;;19.30;91.30;;;;;;5087354;28;20147;-72
2021/06/05 01:28:35;;;;;;;19.17;14.50;;;19.20;91.20;;;;;;5082725;28;20049;-72
2021/06/05 01:31:09;;;;;;;17.90;13.43;;;19.10;91.30;;;;;;5086793;28;20036;-72
2021/06/05 01:33:39;;;;;;;17.38;13.38;;;19.10;91.40;;;;;;5087671;28;20093;-72
2021/06/05 01:36:12;;;;;;;19.17;13.45;;;19.10;91.40;;;;;;5082512;28;20044;-72
2021/06/05 01:38:44;;;;;;;18.33;14.38;;;19.10;91.40;;;;;;5088991;28;20126;-72
2021/06/05 01:41:14;;;;;;;19.67;15.27;;;19.10;91.40;;;;;;5091019;28;20048;-72
2021/06/05 01:43:45;;;;;;;17.20;13.77;;;19.00;91.40;;;;;;5072987;28;20404;-72
2021/06/05 01:46:14;;;;;;;15.52;12.27;;;19.00;91.50;;;;;;5075920;28;20049;-72
2021/06/05 01:48:42;;;;;;;16.27;13.45;;;19.10;91.50;;;;;;5079191;28;20083;-72
2021/06/05 01:51:15;;;;;;;16.95;13.57;;;19.10;91.50;;;;;;5091099;28;20498;-72
2021/06/05 01:53:54;;;;;;;17.27;13.43;;;19.20;91.50;;;;;;5080158;28;20500;-72
2021/06/05 01:56:41;;;;;;;17.55;13.88;;;19.20;91.40;;;;;;5085953;28;20488;-72
2021/06/05 01:59:17;;;;;;;17.80;13.85;;;19.20;91.40;;;;;;5072452;28;20040;-72
2021/06/05 02:01:52;;;;;;;21.02;16.35;;;19.20;91.70;;;;;;5086170;28;20048;-72
2021/06/05 02:04:20;;;;;;;21.83;17.20;;;19.20;91.40;;;;;;5084296;28;20052;-72
2021/06/05 02:06:54;;;;;;;25.85;19.70;;;19.20;91.50;;;;;;5087397;28;20054;-72
2021/06/05 02:09:25;;;;;;;30.27;22.80;;;19.10;91.40;;;;;;5091151;28;20064;-72
2021/06/05 02:12:31;;;;;;;33.58;26.70;;;19.00;91.50;;;;;;5080715;28;20032;-72
2021/06/05 02:15:19;;;;;;;32.33;24.33;;;18.80;91.40;;;;;;5088740;28;20050;-72
2021/06/05 02:17:46;;;;;;;29.90;22.85;;;18.70;91.70;;;;;;5085290;28;20499;-72
2021/06/05 02:20:51;;;;;;;29.45;22.45;;;18.60;91.70;;;;;;5088853;28;20768;-71
2021/06/05 02:23:26;;;;;;;31.50;23.35;;;18.50;91.70;;;;;;5059978;28;20466;-71
2021/06/05 02:26:03;;;;;;;36.22;25.98;;;18.40;91.70;;;;;;5089770;28;20028;-72
2021/06/05 02:28:31;;;;;;;37.33;24.23;;;18.40;91.70;;;;;;5069147;28;20048;-72
2021/06/05 02:40:49;;;;;;;38.92;28.83;;;18.20;91.80;;;;;;4724557;30;20069;-75
2021/06/05 02:43:22;;;;;;;38.45;27.38;;;18.10;91.80;;;;;;4712062;30;20067;-75
2021/06/05 02:45:52;;;;;;;40.40;27.53;;;18.10;91.80;;;;;;4713459;30;20045;-75
2021/06/05 02:48:23;;;;;;;35.13;24.05;;;18.10;91.80;;;;;;4707941;30;20065;-75
2021/06/05 02:50:53;;;;;;;39.35;26.65;;;18.10;91.80;;;;;;4698585;30;20135;-75
2021/06/05 02:53:22;;;;;;;37.60;25.65;;;18.10;91.80;;;;;;4704032;30;20072;-75
2021/06/05 02:55:49;;;;;;;34.88;24.92;;;18.10;91.80;;;;;;4696417;30;20056;-75
2021/06/05 02:58:18;;;;;;;33.33;23.42;;;18.00;91.80;;;;;;4699410;30;20067;-76
2021/06/05 03:00:48;;;;;;;38.70;25.95;;;18.00;91.80;;;;;;4715151;30;20156;-75
2021/06/05 03:03:21;;;;;;;39.08;26.40;;;18.00;91.80;;;;;;4696116;30;20168;-75
2021/06/05 03:05:50;;;;;;;36.78;25.88;;;17.90;91.80;;;;;;4700825;30;20409;-75
2021/06/05 03:08:25;;;;;;;37.20;23.85;;;17.90;91.80;;;;;;4687716;30;20464;-75
2021/06/05 03:10:55;;;;;;;40.90;27.42;;;17.90;92.10;;;;;;4692777;30;20085;-75
2021/06/05 03:13:24;;;;;;;47.72;30.90;;;17.90;91.80;;;;;;4689245;30;20048;-75
2021/06/05 03:15:53;;;;;;;43.05;27.17;;;17.80;91.80;;;;;;4699269;30;20060;-75
2021/06/05 03:18:28;;;;;;;43.58;27.70;;;17.80;91.80;;;;;;4707219;30;20132;-75
2021/06/05 03:20:58;;;;;;;43.55;27.60;;;17.70;91.80;;;;;;4705810;30;20053;-75
2021/06/05 03:23:28;;;;;;;40.78;27.23;;;17.70;91.80;;;;;;4685721;30;20060;-75
2021/06/05 03:25:57;;;;;;;50.60;32.92;;;17.70;91.80;;;;;;4714787;30;20506;-75
2021/06/05 03:28:30;;;;;;;46.85;30.40;;;17.70;91.80;;;;;;4709265;30;20077;-70
2021/06/05 03:30:57;;;;;;;46.90;28.58;;;17.60;91.80;;;;;;4700286;30;20056;-70
2021/06/05 03:33:27;;;;;;;41.60;27.08;;;17.70;91.90;;;;;;4697527;30;20051;-70
2021/06/05 03:36:00;;;;;;;36.95;23.70;;;17.70;91.80;;;;;;4709473;30;20107;-70
2021/06/05 03:38:29;;;;;;;37.00;22.88;;;17.70;91.80;;;;;;4685186;30;20049;-70
2021/06/05 03:40:57;;;;;;;37.03;23.27;;;17.80;92.10;;;;;;4685546;30;20068;-70
2021/06/05 03:43:26;;;;;;;41.53;26.27;;;17.80;91.70;;;;;;4682936;30;20143;-70
2021/06/05 03:45:53;;;;;;;40.05;24.20;;;17.80;91.70;;;;;;4698134;30;20178;-70
2021/06/05 03:48:21;;;;;;;39.75;27.35;;;17.80;91.70;;;;;;4672567;30;20050;-70
2021/06/05 03:50:53;;;;;;;53.00;31.63;;;17.80;91.60;;;;;;4694025;30;20061;-70
2021/06/05 03:53:24;;;;;;;47.38;27.83;;;17.80;91.60;;;;;;4699745;30;20042;-70
2021/06/05 03:55:54;;;;;;;41.80;25.15;;;17.80;91.60;;;;;;4690213;30;20061;-70
2021/06/05 03:58:37;;;;;;;37.30;22.80;;;17.80;91.70;;;;;;4682516;30;20565;-70
2021/06/05 04:01:14;;;;;;;38.55;23.15;;;17.80;91.60;;;;;;4697356;30;20423;-70
2021/06/05 04:03:42;;;;;;;35.35;22.52;;;17.90;91.60;;;;;;4700116;30;20396;-70
2021/06/05 04:06:10;;;;;;;40.15;22.52;;;17.90;91.90;;;;;;4704389;30;20577;-70
2021/06/05 04:08:37;;;;;;;36.17;22.15;;;18.00;91.60;;;;;;4705562;30;20042;-70
2021/06/05 04:11:05;;;;;;;36.22;22.13;;;18.00;91.60;;;;;;4700086;30;20046;-70
2021/06/05 04:13:33;;;;;;;40.05;23.27;;;18.10;91.50;;;;;;4689160;30;20057;-70
2021/06/05 04:16:00;;;;;;;40.53;23.95;;;18.10;91.50;;;;;;4705353;30;20053;-70
2021/06/05 04:18:30;;;;;;;35.83;21.70;;;18.10;91.50;;;;;;4693639;30;20054;-70
2021/06/05 04:20:59;;;;;;;45.28;26.35;;;18.10;91.50;;;;;;4698787;30;20514;-71
2021/06/05 04:23:27;;;;;;;44.92;25.45;;;18.10;91.50;;;;;;4691620;30;20173;-70
2021/06/05 04:25:56;;;;;;;43.17;26.02;;;18.00;91.40;;;;;;4704995;30;20506;-70
2021/06/05 04:28:25;;;;;;;56.42;31.77;;;18.00;91.50;;;;;;4678094;30;20076;-70
2021/06/05 04:30:53;;;;;;;51.42;28.50;;;17.90;91.40;;;;;;4698360;30;20049;-70
2021/06/05 04:33:23;;;;;;;47.05;27.40;;;17.90;91.50;;;;;;4699974;30;20045;-70
2021/06/05 04:35:51;;;;;;;41.92;24.35;;;17.90;91.50;;;;;;4693966;30;20497;-70
2021/06/05 04:38:19;;;;;;;41.13;24.73;;;17.90;91.50;;;;;;4709115;30;20045;-70
2021/06/05 04:40:46;;;;;;;44.10;25.40;;;18.00;91.50;;;;;;4702459;30;20061;-70
2021/06/05 04:43:15;;;;;;;39.22;23.75;;;18.00;91.40;;;;;;4689186;30;20041;-70
2021/06/05 04:45:42;;;;;;;40.25;21.42;;;18.00;91.40;;;;;;4714411;30;20045;-70
2021/06/05 04:48:10;;;;;;;39.33;23.08;;;18.10;91.40;;;;;;4700021;30;20048;-70
2021/06/05 04:50:39;;;;;;;36.17;19.70;;;18.10;91.40;;;;;;4686150;30;20519;-70
2021/06/05 04:53:07;;;;;;;36.40;21.25;;;18.20;91.30;;;;;;4700033;30;20049;-70
2021/06/05 04:55:34;;;;;;;35.50;19.90;;;18.30;91.30;;;;;;4693672;30;20508;-70
2021/06/05 04:58:03;;;;;;;32.40;19.02;;;18.30;91.20;;;;;;4677917;30;20069;-70
2021/06/05 05:00:37;;;;;;;35.35;19.75;;;18.40;91.30;;;;;;4691708;30;20046;-70
2021/06/05 05:03:06;;;;;;;43.40;23.42;;;18.40;91.20;;;;;;4678043;30;20801;-70
2021/06/05 05:05:33;;;;;;;33.00;19.65;;;18.40;91.10;;;;;;4693580;30;20046;-70
2021/06/05 05:08:00;;;;;;;34.42;20.42;;;18.40;91.10;;;;;;4702209;30;20069;-70
2021/06/05 05:10:32;;;;;;;34.75;21.73;;;18.40;91.10;;;;;;4693026;30;20053;-70
2021/06/05 05:13:00;;;;;;;35.47;21.45;;;18.50;91.10;;;;;;4689211;30;20711;-70
2021/06/05 05:15:28;;;;;;;33.65;20.08;;;18.40;91.30;;;;;;4699355;30;20056;-70
2021/06/05 05:17:55;;;;;;;38.80;21.63;;;18.40;91.10;;;;;;4683351;30;20067;-70
2021/06/05 05:20:27;;;;;;;35.47;20.67;;;18.40;91.10;;;;;;4691783;30;20100;-70
2021/06/05 05:22:54;;;;;;;31.10;18.90;;;18.40;91.10;;;;;;4697780;30;20108;-70
2021/06/05 05:25:22;;;;;;;32.55;18.60;;;18.30;91.10;;;;;;4694445;30;20041;-70
2021/06/05 05:27:49;;;;;;;32.58;18.63;;;18.30;91.10;;;;;;4695198;30;20075;-70
2021/06/05 05:30:22;;;;;;;32.78;18.77;;;18.40;91.20;;;;;;4691291;30;20053;-70
2021/06/05 05:32:49;;;;;;;27.15;17.40;;;18.30;91.10;;;;;;4709030;30;20140;-70
2021/06/05 05:35:16;;;;;;;32.25;18.45;;;18.40;91.20;;;;;;4688331;30;20049;-70
2021/06/05 05:37:43;;;;;;;34.90;19.83;;;18.40;91.10;;;;;;4696219;30;20128;-70
2021/06/05 05:40:12;;;;;;;34.70;19.00;;;18.40;91.40;;;;;;4699509;30;20061;-70
2021/06/05 05:42:39;;;;;;;29.27;16.00;;;18.40;91.10;;;;;;4693415;30;20060;-70
2021/06/05 05:45:08;;;;;;;36.08;18.02;;;18.40;91.10;;;;;;4700299;30;20073;-70
2021/06/05 05:47:35;;;;;;;33.60;18.40;;;18.50;91.10;;;;;;4687750;30;20058;-70
2021/06/05 05:50:05;;;;;;;32.58;18.00;;;18.40;91.10;;;;;;4698872;30;20084;-70
2021/06/05 05:52:32;;;;;;;38.92;21.42;;;18.50;91.10;;;;;;4700944;30;20053;-70
2021/06/05 05:54:59;;;;;;;42.78;23.35;;;18.40;91.00;;;;;;4695693;30;20042;-70
2021/06/05 05:57:26;;;;;;;38.97;22.13;;;18.40;91.00;;;;;;4688858;30;20053;-70
2021/06/05 05:59:53;;;;;;;35.08;20.10;;;18.50;91.00;;;;;;4696965;30;20076;-70
2021/06/05 06:02:20;;;;;;;32.03;18.92;;;18.40;91.00;;;;;;4677551;30;20053;-70
2021/06/05 06:04:47;;;;;;;37.38;20.58;;;18.50;91.00;;;;;;4694067;30;20506;-70
2021/06/05 06:07:14;;;;;;;36.05;20.27;;;18.50;91.00;;;;;;4677456;30;20050;-70
2021/06/05 06:09:41;;;;;;;34.47;20.63;;;18.50;91.00;;;;;;4681672;30;20064;-70
2021/06/05 06:12:09;;;;;;;29.40;17.88;;;18.60;91.00;;;;;;4685615;30;20140;-70
2021/06/05 06:14:36;;;;;;;34.28;18.77;;;18.60;90.90;;;;;;4686359;30;20226;-70
2021/06/05 06:17:03;;;;;;;31.38;16.60;;;18.60;91.00;;;;;;4689857;30;20469;-70
2021/06/05 06:19:31;;;;;;;31.17;18.00;;;18.80;90.90;;;;;;4680612;30;20702;-70
2021/06/05 06:21:58;;;;;;;27.75;15.73;;;18.80;90.80;;;;;;4679116;30;20144;-70
2021/06/05 06:24:25;;;;;;;31.67;17.00;;;18.90;90.80;;;;;;4682078;30;20206;-70
2021/06/05 06:26:52;;;;;;;28.45;16.55;;;18.90;90.80;;;;;;4676969;30;20052;-70
2021/06/05 06:29:27;;;;;;;29.42;16.83;;;18.90;90.80;;;;;;4681452;30;20081;-70
2021/06/05 06:31:54;;;;;;;26.40;14.98;;;18.90;90.80;;;;;;4692015;30;20050;-70
2021/06/05 06:34:22;;;;;;;23.98;13.38;;;19.00;90.80;;;;;;4691816;30;20045;-70
2021/06/05 06:36:51;;;;;;;28.45;14.95;;;19.10;90.70;;;;;;4665005;30;20395;-70
2021/06/05 06:39:18;;;;;;;24.50;14.48;;;19.10;90.60;;;;;;4694388;30;20050;-70
2021/06/05 06:41:45;;;;;;;25.73;15.70;;;19.20;90.60;;;;;;4690685;30;20069;-71
2021/06/05 06:44:12;;;;;;;20.58;12.52;;;19.20;90.50;;;;;;4700597;30;20067;-70
2021/06/05 06:46:43;;;;;;;19.10;11.52;;;19.20;90.50;;;;;;4682678;30;20099;-69
2021/06/05 06:49:12;;;;;;;19.58;12.73;;;19.30;90.60;;;;;;4686779;30;20064;-70
2021/06/05 06:51:41;;;;;;;22.88;12.02;;;19.40;90.50;;;;;;4683169;30;20046;-70
2021/06/05 06:54:09;;;;;;;22.27;12.43;;;19.40;90.40;;;;;;4690763;30;20521;-70
2021/06/05 06:56:37;;;;;;;21.40;12.18;;;19.30;90.50;;;;;;4691869;30;20129;-69
2021/06/05 06:59:05;;;;;;;17.13;11.50;;;19.30;90.50;;;;;;4663655;30;20081;-69
2021/06/05 07:01:33;;;;;;;19.65;11.57;;;19.20;90.50;;;;;;4675847;30;20057;-70
2021/06/05 07:04:01;;;;;;;17.60;10.90;;;19.20;90.50;;;;;;4676567;30;20046;-69
2021/06/05 07:06:28;;;;;;;17.05;10.93;;;19.20;90.50;;;;;;4662141;30;20045;-70
2021/06/05 07:08:56;;;;;;;15.77;10.43;;;19.20;90.50;;;;;;4690497;30;20447;-69
2021/06/05 07:11:29;;;;;;;15.93;9.70;;;19.20;90.50;;;;;;4697083;30;20084;-69
2021/06/05 07:13:58;;;;;;;14.43;9.32;;;19.20;90.50;;;;;;4688797;30;20065;-69
2021/06/05 07:16:27;;;;;;;16.60;10.50;;;19.20;90.50;;;;;;4696478;30;20111;-69
2021/06/05 07:18:54;;;;;;;15.50;9.02;;;19.20;90.50;;;;;;4696803;30;20104;-71
2021/06/05 07:21:21;;;;;;;15.00;9.18;;;19.30;90.50;;;;;;4700644;30;20057;-71
2021/06/05 07:23:48;;;;;;;15.55;9.32;;;19.40;90.40;;;;;;4689060;30;20139;-71
2021/06/05 07:26:20;;;;;;;14.07;8.40;;;19.40;90.30;;;;;;4698434;30;20049;-71
2021/06/05 07:28:54;;;;;;;12.40;7.28;;;19.40;90.30;;;;;;4698523;30;20046;-70
2021/06/05 07:31:26;;;;;;;16.33;11.23;;;19.50;90.30;;;;;;4698277;30;20128;-71
2021/06/05 07:33:54;;;;;;;;;;;19.40;90.20;;;;;;4699092;30;20049;-71
2021/06/05 07:36:27;;;;;;;16.27;9.82;;;19.30;90.30;;;;;;4683015;30;19985;-71
2021/06/05 07:38:56;;;;;;;19.65;13.55;;;19.30;90.40;;;;;;4700752;30;20124;-71
2021/06/05 07:41:24;;;;;;;18.95;12.38;;;19.30;90.40;;;;;;4695686;30;20384;-71
2021/06/05 07:43:51;;;;;;;17.55;11.68;;;19.30;90.20;;;;;;4694662;30;20131;-70
2021/06/05 07:46:18;;;;;;;15.20;9.68;;;19.30;90.20;;;;;;4696720;30;20061;-72
2021/06/05 07:48:46;;;;;;;15.13;9.93;;;19.40;90.20;;;;;;4708006;30;20053;-73
2021/06/05 07:51:13;;;;;;;13.32;8.68;;;19.40;90.20;;;;;;4701802;30;20045;-73
2021/06/05 07:53:40;;;;;;;13.00;8.75;;;19.50;90.10;;;;;;4701781;30;20576;-72
2021/06/05 07:56:07;;;;;;;12.13;7.18;;;19.60;90.10;;;;;;4698708;30;20066;-73
2021/06/05 07:58:34;;;;;;;14.35;9.35;;;19.60;90.00;;;;;;4686137;30;20692;-72
2021/06/05 08:01:01;;;;;;;15.13;9.27;;;19.60;90.00;;;;;;4684349;30;20052;-72
2021/06/05 08:03:28;;;;;;;13.05;9.18;;;19.60;90.00;;;;;;4701353;30;20046;-72
2021/06/05 08:05:55;;;;;;;15.85;10.13;;;19.50;90.00;;;;;;4679450;30;20153;-73
2021/06/05 08:08:22;;;;;;;16.30;10.93;;;19.40;90.00;;;;;;4693516;30;20046;-73
2021/06/05 08:10:49;;;;;;;15.75;9.60;;;19.40;90.00;;;;;;4700616;30;20053;-73
2021/06/05 08:13:17;;;;;;;13.57;9.90;;;19.40;90.20;;;;;;4701227;30;20052;-73
2021/06/05 08:15:47;;;;;;;14.80;9.00;;;19.30;90.10;;;;;;4677938;30;20050;-73
2021/06/05 08:18:15;;;;;;;14.50;10.18;;;19.30;90.20;;;;;;4692639;30;20103;-72
2021/06/05 08:20:49;;;;;;;15.50;10.48;;;19.30;90.30;;;;;;4711085;30;20059;-72
2021/06/05 08:23:19;;;;;;;14.63;9.70;;;19.30;90.20;;;;;;4702075;30;20053;-72
2021/06/05 08:25:48;;;;;;;15.50;8.95;;;19.20;90.30;;;;;;4701484;30;20050;-72
2021/06/05 08:28:19;;;;;;;15.30;10.35;;;19.20;90.40;;;;;;4693213;30;20060;-72
2021/06/05 08:30:47;;;;;;;14.13;9.27;;;19.10;90.30;;;;;;4693195;30;20076;-71
2021/06/05 08:33:15;;;;;;;14.65;9.32;;;19.10;90.60;;;;;;4690655;30;20112;-71
2021/06/05 08:35:43;;;;;;;14.10;9.05;;;19.20;90.40;;;;;;4693657;30;20052;-71
2021/06/05 08:38:13;;;;;;;14.40;9.77;;;19.20;90.40;;;;;;4700646;30;20469;-71
2021/06/05 08:41:05;;;;;;;15.68;10.30;;;19.10;90.40;;;;;;4701498;30;20065;-73
2021/06/05 08:43:46;;;;;;;14.48;9.82;;;19.10;90.40;;;;;;4709925;30;20052;-71
2021/06/05 08:46:20;;;;;;;12.40;8.30;;;19.10;90.40;;;;;;4694344;30;20494;-71
2021/06/05 08:48:48;;;;;;;13.27;8.43;;;19.10;90.40;;;;;;4701876;30;20049;-71
2021/06/05 08:51:27;;;;;;;11.25;8.00;;;19.10;90.50;;;;;;4681316;30;20398;-71
2021/06/05 08:54:13;;;;;;;11.82;8.25;;;19.10;90.50;;;;;;4706231;30;20064;-72
2021/06/05 08:56:41;;;;;;;12.25;8.10;;;19.10;90.50;;;;;;4682218;30;20056;-72
2021/06/05 08:59:10;;;;;;;9.95;7.47;;;19.10;90.50;;;;;;4694986;30;20053;-72
2021/06/05 09:01:42;;;;;;;9.80;6.68;;;19.20;90.50;;;;;;4706012;30;20054;-71
2021/06/05 09:04:15;;;;;;;10.68;7.13;;;19.30;90.50;;;;;;4700273;30;20060;-71
2021/06/05 09:06:53;;;;;;;11.55;6.47;;;19.50;90.40;;;;;;4700403;30;20129;-71
2021/06/05 09:09:28;;;;;;;7.32;5.38;;;19.60;90.60;;;;;;4701303;30;20499;-72
2021/06/05 09:11:59;;;;;;;8.32;5.50;;;19.90;90.20;;;;;;4699378;30;20053;-71
2021/06/05 09:14:28;;;;;;;7.57;5.15;;;20.00;90.10;;;;;;4688186;30;20049;-71
2021/06/05 09:16:55;;;;;;;7.15;4.63;;;20.20;90.00;;;;;;4692383;30;20111;-71
2021/06/05 09:19:32;;;;;;;7.43;5.10;;;20.40;89.80;;;;;;4710521;30;20103;-71
2021/06/05 09:22:05;;;;;;;6.53;4.70;;;20.50;89.40;;;;;;4704561;30;20049;-71
2021/06/05 09:24:52;;;;;;;9.38;5.50;;;20.60;89.40;;;;;;4704242;30;20525;-71
2021/06/05 09:27:21;;;;;;;8.65;7.13;;;20.50;88.80;;;;;;4694790;30;20091;-71
2021/06/05 09:29:51;;;;;;;9.68;7.35;;;20.30;88.60;;;;;;4679389;30;20053;-71
2021/06/05 09:32:25;;;;;;;9.02;6.70;;;20.00;88.80;;;;;;4687351;30;20449;-71
2021/06/05 09:34:57;;;;;;;9.93;7.38;;;19.80;89.20;;;;;;4705131;30;20456;-71
2021/06/05 09:37:32;;;;;;;9.88;6.40;;;19.80;89.60;;;;;;4703752;30;20426;-70
2021/06/05 09:40:16;;;;;;;8.15;5.95;;;19.70;89.70;;;;;;4687077;30;20069;-71
2021/06/05 09:42:56;;;;;;;8.00;5.95;;;19.70;89.80;;;;;;4686705;30;20148;-71
2021/06/05 09:45:24;;;;;;;8.60;6.15;;;19.80;89.70;;;;;;4685969;30;20486;-71
2021/06/05 09:47:52;;;;;;;8.80;5.32;;;19.80;89.70;;;;;;4699715;30;20137;-71
2021/06/05 09:50:32;;;;;;;7.18;5.53;;;19.80;89.70;;;;;;4690122;30;20045;-71
2021/06/05 09:53:29;;;;;;;7.53;5.70;;;19.90;89.70;;;;;;4698846;30;20049;-71
2021/06/05 09:56:19;;;;;;;7.85;5.95;;;20.00;89.50;;;;;;4700972;30;20206;-71
2021/06/05 09:58:58;;;;;;;7.15;5.60;;;20.10;89.20;;;;;;4701191;30;20053;-71
2021/06/05 10:01:28;;;;;;;8.68;6.20;;;20.30;88.90;;;;;;4676686;30;20088;-71
2021/06/05 10:04:07;;;;;;;9.00;6.82;;;20.50;88.60;;;;;;4699351;30;20128;-73
2021/06/05 10:06:52;;;;;;;8.80;6.70;;;20.60;88.00;;;;;;4685861;30;20062;-71
2021/06/05 10:09:42;;;;;;;9.15;6.10;;;20.60;88.20;;;;;;4698958;30;20046;-72
2021/06/05 10:12:22;;;;;;;8.13;6.55;;;20.60;88.50;;;;;;4685429;30;20048;-72
2021/06/05 10:14:57;;;;;;;10.93;8.40;;;20.50;88.40;;;;;;4694815;30;20077;-72
2021/06/05 10:17:50;;;;;;;7.35;6.57;;;20.50;88.00;;;;;;4705007;30;20402;-71
2021/06/05 10:20:26;;;;;;;9.70;7.45;;;20.60;88.00;;;;;;4691499;30;20049;-72
2021/06/05 10:22:57;;;;;;;9.57;7.03;;;20.60;87.80;;;;;;4681534;30;20072;-72
2021/06/05 10:25:30;;;;;;;7.20;6.20;;;20.60;87.80;;;;;;4691909;30;20064;-72
2021/06/05 10:28:16;;;;;;;10.98;8.52;;;20.50;87.70;;;;;;4698647;30;20042;-72
2021/06/05 10:30:52;;;;;;;9.95;8.40;;;20.30;87.40;;;;;;4692430;30;20119;-73
2021/06/05 10:33:54;;;;;;;9.85;8.00;;;20.20;87.70;;;;;;4695164;30;20103;-73
2021/06/05 10:36:25;;;;;;;10.15;7.75;;;20.00;88.10;;;;;;4669874;30;20162;-73
2021/06/05 10:38:57;;;;;;;9.50;8.15;;;20.00;87.90;;;;;;4698721;30;20049;-72
2021/06/05 10:41:29;;;;;;;9.73;8.60;;;19.90;88.00;;;;;;4699204;30;20056;-73
2021/06/05 10:43:57;;;;;;;9.65;7.65;;;19.80;88.10;;;;;;4697229;30;20053;-73
2021/06/05 10:47:00;;;;;;;7.55;5.70;;;19.80;88.90;;;;;;4700003;30;20053;-73
2021/06/05 10:49:34;;;;;;;6.50;5.43;;;20.10;88.20;;;;;;4698389;30;20041;-72
2021/06/05 10:52:17;;;;;;;7.68;5.13;;;20.30;88.30;;;;;;4706117;30;20518;-72
2021/06/05 10:54:49;;;;;;;7.25;5.78;;;20.40;88.00;;;;;;4676631;30;20446;-72
2021/06/05 10:57:19;;;;;;;7.32;5.70;;;20.30;87.90;;;;;;4698800;30;20057;-72
2021/06/05 10:59:59;;;;;;;8.20;5.70;;;20.30;87.90;;;;;;4699933;30;20053;-72
2021/06/05 11:02:44;;;;;;;6.00;5.15;;;20.20;88.20;;;;;;4702330;30;20045;-71
2021/06/05 11:05:17;;;;;;;7.07;5.35;;;20.20;88.20;;;;;;4698701;30;20046;-72
2021/06/05 11:07:46;;;;;;;6.43;5.13;;;20.10;88.40;;;;;;4702754;30;20045;-72
2021/06/05 11:10:50;;;;;;;7.22;6.35;;;20.10;88.50;;;;;;4699809;30;20820;-72
2021/06/05 11:13:35;;;;;;;8.57;7.40;;;20.00;88.50;;;;;;4692377;30;20078;-72
2021/06/05 11:16:03;;;;;;;8.07;7.07;;;20.00;88.50;;;;;;4687121;30;20122;-72
2021/06/05 11:18:42;;;;;;;13.73;9.32;;;19.90;88.50;;;;;;4689617;30;20049;-71
2021/06/05 11:21:27;;;;;;;8.98;7.85;;;19.80;88.10;;;;;;4697288;30;20596;-73
2021/06/05 11:23:57;;;;;;;10.50;7.63;;;19.70;88.30;;;;;;4682663;30;20058;-72
2021/06/05 11:26:37;;;;;;;10.68;7.55;;;19.80;88.50;;;;;;4698930;30;20045;-72
2021/06/05 11:29:27;;;;;;;7.22;6.28;;;19.90;88.40;;;;;;4699406;30;20455;-73
2021/06/05 11:31:55;;;;;;;8.20;6.63;;;20.00;88.40;;;;;;4685390;30;20470;-76
2021/06/05 11:34:33;;;;;;;10.50;8.10;;;20.20;88.30;;;;;;4700134;30;20056;-75
2021/06/05 11:37:04;;;;;;;9.65;7.60;;;20.30;87.50;;;;;;4687265;30;20050;-76
2021/06/05 11:39:31;;;;;;;7.63;6.82;;;20.40;87.70;;;;;;4699473;30;20072;-76
2021/06/05 11:42:20;;;;;;;9.38;8.32;;;20.50;87.40;;;;;;4698486;30;20049;-76
2021/06/05 11:44:56;;;;;;;8.98;7.97;;;20.60;86.90;;;;;;4696179;30;20050;-76
2021/06/05 11:47:23;;;;;;;10.82;8.32;;;20.50;87.10;;;;;;4704336;30;20048;-76
2021/06/05 11:50:09;;;;;;;10.18;7.72;;;20.50;86.90;;;;;;4706861;30;20073;-76
2021/06/05 11:52:39;;;;;;;9.82;8.80;;;20.60;87.20;;;;;;4700616;30;20461;-76
2021/06/05 11:55:33;;;;;;;8.25;7.35;;;20.60;86.70;;;;;;4698328;30;20045;-76
2021/06/05 11:58:12;;;;;;;9.80;7.40;;;20.60;87.00;;;;;;4693270;30;20072;-76
2021/06/05 12:01:01;;;;;;;6.85;6.18;;;20.50;87.20;;;;;;4698354;30;20046;-76
2021/06/05 12:03:47;;;;;;;7.70;5.80;;;20.50;88.00;;;;;;4700285;30;20080;-76
2021/06/05 12:06:44;;;;;;;8.50;6.75;;;20.50;87.40;;;;;;4692420;30;20153;-75
2021/06/05 12:09:24;;;;;;;8.55;5.50;;;20.40;87.40;;;;;;4706378;30;20081;-75
2021/06/05 12:11:59;;;;;;;9.07;6.57;;;20.40;87.80;;;;;;4702306;30;20057;-76
2021/06/05 12:17:31;;;;;;;9.50;7.07;;;20.30;87.70;;;;;;4707568;30;20133;-75
2021/06/05 12:20:23;;;;;;;8.63;6.68;;;20.30;87.80;;;;;;4697103;30;20046;-75
2021/06/05 12:22:59;;;;;;;9.50;7.80;;;20.30;88.00;;;;;;4710018;30;20136;-75
2021/06/05 12:25:39;;;;;;;7.07;5.97;;;20.30;87.50;;;;;;4687219;30;20132;-75
2021/06/05 12:28:10;;;;;;;7.88;6.70;;;20.30;87.50;;;;;;4703851;30;20124;-75
2021/06/05 12:30:56;;;;;;;10.30;7.68;;;20.40;87.60;;;;;;4685365;30;20088;-75
2021/06/05 12:33:34;;;;;;;8.20;7.25;;;20.40;87.30;;;;;;4688047;30;20065;-75
2021/06/05 12:36:26;;;;;;;8.35;6.45;;;20.40;87.30;;;;;;4702349;30;20081;-75
2021/06/05 12:39:26;;;;;;;7.03;5.05;;;20.50;87.40;;;;;;4706103;30;20062;-76
2021/06/05 12:41:57;;;;;;;7.43;6.33;;;20.50;87.40;;;;;;4677080;30;20051;-76
2021/06/05 12:44:39;;;;;;;8.90;7.78;;;20.50;87.20;;;;;;4669876;30;20061;-70
2021/06/05 12:47:16;;;;;;;9.13;7.65;;;20.60;86.90;;;;;;4674791;30;20508;-70
2021/06/05 12:49:45;;;;;;;8.98;7.97;;;20.50;86.60;;;;;;4664685;30;20508;-71
2021/06/05 12:52:17;;;;;;;13.50;9.25;;;20.40;86.90;;;;;;4666904;30;20078;-70
2021/06/05 12:54:48;;;;;;;8.40;6.70;;;20.30;86.90;;;;;;4668519;30;20518;-69
2021/06/05 12:57:28;;;;;;;8.60;6.90;;;20.30;87.30;;;;;;4671261;30;20109;-70
2021/06/05 12:59:56;;;;;;;7.50;6.18;;;20.30;87.00;;;;;;4660453;30;20050;-70
2021/06/05 13:02:33;;;;;;;8.60;7.10;;;20.30;87.20;;;;;;4678110;30;20081;-70
2021/06/05 13:05:10;;;;;;;8.25;7.43;;;20.50;87.10;;;;;;4668013;30;20062;-70
2021/06/05 13:07:41;;;;;;;8.70;6.85;;;20.80;86.60;;;;;;4669976;30;20062;-70
2021/06/05 13:10:25;;;;;;;7.25;6.50;;;21.00;86.40;;;;;;4677746;30;20050;-71
2021/06/05 13:13:24;;;;;;;6.18;5.57;;;21.20;86.10;;;;;;4666835;30;20054;-74
2021/06/05 13:16:19;;;;;;;7.82;7.00;;;21.20;85.90;;;;;;4656925;30;20055;-74
2021/06/05 13:18:48;;;;;;;8.18;7.00;;;21.20;86.00;;;;;;4662345;30;20493;-76